Time;durP1;ratioP1;P1;durP2;ratioP2;P2;SDS_P1;SDS_P2;PMS_P1;PMS_P2;Temp;Humidity;BMP_temperature;BMP_pressure;BME280_temperature;BME280_humidity;BME280_pressure;Samples;Min_cycle;Max_cycle;Signal;HPM_P1;HPM_P2
2023/08/05 00:01:30;;;;;;;4.80;1.45;;;;;;;25.23;42.89;100035.28;5089740;28;20044;-74
2023/08/05 00:03:56;;;;;;;3.05;1.30;;;;;;;25.24;42.93;100030.81;5094045;28;20024;-74
2023/08/05 00:06:21;;;;;;;2.70;1.33;;;;;;;25.23;43.25;100034.44;5094351;28;20039;-73
2023/08/05 00:08:47;;;;;;;2.67;1.33;;;;;;;25.22;43.06;100030.06;5094773;28;20017;-74
2023/08/05 00:11:12;;;;;;;3.88;1.48;;;;;;;25.20;43.07;100025.69;5094622;28;20464;-73
2023/08/05 00:13:37;;;;;;;4.70;1.52;;;;;;;25.22;42.90;100035.41;5094715;28;20020;-74
2023/08/05 00:16:06;;;;;;;4.25;1.40;;;;;;;25.20;43.19;100041.72;5094554;28;20480;-74
2023/08/05 00:18:32;;;;;;;2.50;1.10;;;;;;;25.19;42.91;100029.31;5094223;28;20020;-74
2023/08/05 00:20:57;;;;;;;3.17;1.20;;;;;;;25.19;43.30;100036.50;5094297;28;20107;-75
2023/08/05 00:23:23;;;;;;;4.10;1.42;;;;;;;25.19;43.14;100034.66;5094533;28;20131;-74
2023/08/05 00:25:48;;;;;;;3.00;1.45;;;;;;;25.19;43.22;100037.31;5094463;28;20494;-75
2023/08/05 00:28:13;;;;;;;3.70;1.30;;;;;;;25.18;43.32;100027.59;5093988;28;20020;-75
2023/08/05 00:30:39;;;;;;;2.40;1.30;;;;;;;25.18;43.04;100026.78;5093169;28;20027;-74
2023/08/05 00:33:04;;;;;;;2.90;1.63;;;;;;;25.17;43.28;100031.25;5093960;28;20477;-75
2023/08/05 00:35:30;;;;;;;4.90;1.50;;;;;;;25.17;43.41;100031.25;5094070;28;20027;-74
2023/08/05 00:37:55;;;;;;;3.38;1.35;;;;;;;25.16;43.41;100029.53;5094470;28;20052;-74
2023/08/05 00:40:21;;;;;;;2.03;1.10;;;;;;;25.16;43.15;100024.19;5093990;28;20020;-74
2023/08/05 00:43:09;;;;;;;2.65;1.27;;;;;;;25.15;43.24;100022.50;5093892;28;20024;-74
2023/08/05 00:45:35;;;;;;;3.83;1.50;;;;;;;25.15;43.26;100022.50;5093937;28;20396;-74
2023/08/05 00:48:01;;;;;;;3.00;1.25;;;;;;;25.15;43.40;100010.94;5093383;28;20027;-75
2023/08/05 00:50:27;;;;;;;2.13;1.33;;;;;;;25.13;43.47;100013.72;5094194;28;20028;-74
2023/08/05 00:52:53;;;;;;;2.80;1.20;;;;;;;25.14;43.41;100010.09;5093907;28;20073;-74
2023/08/05 00:55:19;;;;;;;3.67;1.20;;;;;;;25.12;43.49;100006.69;5093802;28;20032;-74
2023/08/05 00:57:45;;;;;;;2.97;1.20;;;;;;;25.12;43.45;100006.69;5094061;28;20040;-74
2023/08/05 01:00:11;;;;;;;2.67;1.20;;;;;;;25.14;43.30;99999.41;5093898;28;20119;-74
2023/08/05 01:02:36;;;;;;;2.83;1.38;;;;;;;25.11;43.49;100002.31;5093743;28;20483;-74
2023/08/05 01:05:18;;;;;;;2.38;1.27;;;;;;;25.11;43.45;99988.97;5093856;28;20035;-74
2023/08/05 01:07:44;;;;;;;2.92;1.55;;;;;;;25.10;43.81;99992.59;5093496;28;20032;-77
2023/08/05 01:10:10;;;;;;;2.33;1.27;;;;;;;25.10;43.49;99989.06;5093689;28;20088;-76
2023/08/05 01:12:36;;;;;;;2.67;1.27;;;;;;;25.07;43.65;99990.13;5092584;28;20095;-76
2023/08/05 01:15:01;;;;;;;4.32;1.30;;;;;;;25.06;43.69;99986.63;5095776;28;20015;-78
2023/08/05 01:17:27;;;;;;;3.03;1.45;;;;;;;25.07;43.89;99987.44;5107055;28;20512;-76
2023/08/05 01:19:52;;;;;;;2.70;1.30;;;;;;;25.06;43.67;99980.41;5093762;28;20562;-77
2023/08/05 01:22:36;;;;;;;3.83;1.60;;;;;;;25.07;43.54;99976.78;5093494;28;20073;-77
2023/08/05 01:25:10;;;;;;;3.50;1.60;;;;;;;25.05;43.53;99973.38;5091234;28;20121;-77
2023/08/05 01:27:37;;;;;;;4.50;1.55;;;;;;;25.03;43.50;99967.28;5091699;28;20040;-77
2023/08/05 01:30:03;;;;;;;3.33;1.30;;;;;;;25.02;43.63;99968.22;5093223;28;20024;-78
2023/08/05 01:32:30;;;;;;;3.53;1.40;;;;;;;25.02;43.62;99968.22;5093237;28;20024;-76
2023/08/05 01:34:57;;;;;;;3.20;1.50;;;;;;;25.02;43.87;99968.22;5093198;28;20054;-77
2023/08/05 01:37:23;;;;;;;2.97;1.50;;;;;;;25.04;43.54;99963.66;5093203;28;20103;-77
2023/08/05 01:39:48;;;;;;;2.65;1.25;;;;;;;25.01;43.85;99971.88;5093335;28;20112;-78
2023/08/05 01:42:13;;;;;;;3.72;1.48;;;;;;;24.98;43.74;99966.75;5093011;28;20115;-77
2023/08/05 01:44:39;;;;;;;3.25;1.17;;;;;;;24.99;43.87;99963.13;5092906;28;20028;-77
2023/08/05 01:47:05;;;;;;;3.15;1.58;;;;;;;24.99;44.01;99960.44;5093164;28;20078;-77
2023/08/05 01:49:30;;;;;;;2.92;1.60;;;;;;;24.97;43.68;99960.56;5093287;28;20488;-77
2023/08/05 01:51:55;;;;;;;3.08;1.45;;;;;;;24.96;43.94;99957.97;5092835;28;20008;-77
2023/08/05 01:54:21;;;;;;;2.25;1.30;;;;;;;24.98;43.88;99956.09;5092901;28;20464;-77
2023/08/05 01:56:46;;;;;;;3.05;1.40;;;;;;;24.96;43.94;99958.84;5092992;28;20020;-77
2023/08/05 01:59:12;;;;;;;3.13;1.50;;;;;;;24.94;43.86;99958.94;5092325;28;20059;-78
2023/08/05 02:01:46;;;;;;;2.55;1.17;;;;;;;24.95;44.05;99951.81;5092696;28;20059;-77
2023/08/05 02:04:11;;;;;;;2.65;1.40;;;;;;;24.96;44.02;99952.66;5086822;28;20028;-77
2023/08/05 02:06:37;;;;;;;3.20;1.40;;;;;;;24.94;44.00;99950.94;5092904;28;20031;-77
2023/08/05 02:09:03;;;;;;;2.65;1.17;;;;;;;24.93;44.03;99953.72;5092889;28;20504;-76
2023/08/05 02:11:28;;;;;;;2.85;1.40;;;;;;;24.91;44.11;99953.84;5092600;28;20086;-76
2023/08/05 02:13:54;;;;;;;3.70;1.55;;;;;;;24.91;44.13;99956.50;5092060;28;20028;-76
2023/08/05 02:16:20;;;;;;;2.58;1.08;;;;;;;24.88;44.21;99946.03;5092621;28;20028;-76
2023/08/05 02:18:45;;;;;;;2.88;1.33;;;;;;;24.86;44.01;99937.28;5092328;28;20039;-76
2023/08/05 02:21:11;;;;;;;3.10;1.20;;;;;;;24.89;44.08;99928.22;5092525;28;20020;-76
2023/08/05 02:23:37;;;;;;;2.83;1.25;;;;;;;24.86;44.27;99926.63;5092106;28;20020;-76
2023/08/05 02:26:02;;;;;;;2.08;1.10;;;;;;;24.86;43.96;99931.09;5092198;28;20480;-76
2023/08/05 02:28:28;;;;;;;3.08;1.15;;;;;;;24.84;44.24;99931.19;5092286;28;20032;-77
2023/08/05 02:30:53;;;;;;;2.35;1.10;;;;;;;24.85;44.35;99932.91;5092107;28;20020;-76
2023/08/05 02:33:19;;;;;;;3.45;1.42;;;;;;;24.84;44.07;99923.19;5092355;28;20028;-76
2023/08/05 02:35:46;;;;;;;2.42;1.27;;;;;;;24.82;44.28;99919.78;5092220;28;20030;-76
2023/08/05 02:38:11;;;;;;;3.35;1.20;;;;;;;24.82;44.26;99929.59;5092250;28;20388;-78
2023/08/05 02:40:36;;;;;;;4.38;1.10;;;;;;;24.78;44.14;99923.59;5090882;28;20028;-77
2023/08/05 02:43:02;;;;;;;3.08;1.10;;;;;;;24.81;44.28;99926.09;5091851;28;20024;-76
2023/08/05 02:45:27;;;;;;;2.15;1.20;;;;;;;24.79;44.31;99922.66;5091530;28;20369;-77
2023/08/05 02:47:52;;;;;;;1.85;1.10;;;;;;;24.78;44.30;99915.56;5092170;28;20113;-76
2023/08/05 02:50:18;;;;;;;2.92;1.40;;;;;;;24.77;44.27;99916.53;5091893;28;20472;-76
2023/08/05 02:52:43;;;;;;;1.70;1.20;;;;;;;24.75;44.34;99908.63;5092019;28;20028;-75
2023/08/05 02:55:09;;;;;;;2.47;1.27;;;;;;;24.74;44.33;99916.78;5091588;28;20070;-76
2023/08/05 02:57:34;;;;;;;3.20;1.20;;;;;;;24.73;44.39;99915.03;5091537;28;20032;-76
2023/08/05 02:59:59;;;;;;;2.95;1.30;;;;;;;24.72;44.48;99908.00;5092031;28;20048;-76
2023/08/05 03:02:25;;;;;;;2.67;1.30;;;;;;;24.73;44.47;99904.38;5091729;28;20501;-76
2023/08/05 03:04:50;;;;;;;3.72;1.42;;;;;;;24.73;44.37;99904.38;5091060;28;20490;-76
2023/08/05 03:07:16;;;;;;;3.05;1.50;;;;;;;24.72;44.65;99903.53;5086373;28;20028;-76
2023/08/05 03:09:41;;;;;;;3.28;1.40;;;;;;;24.72;44.50;99908.00;5090619;28;20499;-77
2023/08/05 03:12:08;;;;;;;3.00;1.27;;;;;;;24.71;44.41;99908.97;5091514;28;20036;-76
2023/08/05 03:14:34;;;;;;;3.35;1.40;;;;;;;24.71;44.46;99906.31;5091769;28;20471;-76
2023/08/05 03:17:00;;;;;;;2.50;1.08;;;;;;;24.71;44.52;99907.16;5091838;28;20047;-76
2023/08/05 03:19:25;;;;;;;3.22;1.30;;;;;;;24.64;44.56;99912.06;5091810;28;20537;-76
2023/08/05 03:21:50;;;;;;;3.92;1.20;;;;;;;24.66;44.70;99909.31;5091919;28;20388;-76
2023/08/05 03:24:16;;;;;;;2.72;1.33;;;;;;;24.62;44.58;99903.31;5091544;28;20028;-76
2023/08/05 03:26:41;;;;;;;2.60;1.13;;;;;;;24.61;44.60;99896.28;5091586;28;20399;-76
2023/08/05 03:29:06;;;;;;;2.80;1.27;;;;;;;24.61;44.75;99904.28;5091538;28;20464;-76
2023/08/05 03:31:32;;;;;;;2.88;1.60;;;;;;;24.60;44.72;99899.88;5091700;28;20472;-76
2023/08/05 03:33:58;;;;;;;2.45;1.20;;;;;;;24.61;44.92;99904.28;5091665;28;20042;-76
2023/08/05 03:36:23;;;;;;;2.70;1.20;;;;;;;24.60;44.79;99905.22;5091837;28;20028;-76
2023/08/05 03:38:48;;;;;;;1.70;1.10;;;;;;;24.59;44.61;99908.88;5094813;28;20024;-76
2023/08/05 03:41:14;;;;;;;2.60;1.42;;;;;;;24.60;44.84;99910.56;5095173;28;20433;-75
2023/08/05 03:43:39;;;;;;;2.97;1.27;;;;;;;24.59;44.84;99908.88;5095528;28;20058;-76
2023/08/05 03:46:05;;;;;;;2.70;1.20;;;;;;;24.59;44.88;99919.53;5095117;28;20059;-76
2023/08/05 03:48:30;;;;;;;2.45;1.20;;;;;;;24.58;44.77;99915.16;5095314;28;20028;-76
2023/08/05 03:50:55;;;;;;;2.67;1.38;;;;;;;24.57;44.94;99909.94;5095412;28;20017;-76
2023/08/05 03:53:22;;;;;;;7.30;1.40;;;;;;;24.56;44.66;99925.09;5095124;28;20024;-76
2023/08/05 03:55:47;;;;;;;3.25;1.20;;;;;;;24.57;44.73;99921.47;5095035;28;20036;-76
2023/08/05 03:58:13;;;;;;;4.03;1.30;;;;;;;24.56;45.05;99918.91;5095240;28;20369;-76
2023/08/05 04:00:43;;;;;;;2.05;1.30;;;;;;;24.57;44.81;99921.47;5094975;28;20048;-76
2023/08/05 04:03:08;;;;;;;2.85;1.13;;;;;;;24.57;44.85;99924.13;5095306;28;20024;-76
2023/08/05 04:05:34;;;;;;;2.75;1.30;;;;;;;24.54;45.13;99921.66;5094869;28;20035;-76
2023/08/05 04:07:59;;;;;;;2.33;1.30;;;;;;;24.56;44.83;99925.09;5094975;28;20048;-76
2023/08/05 04:10:25;;;;;;;2.63;1.45;;;;;;;24.54;44.87;99927.88;5094638;28;20042;-76
2023/08/05 04:12:50;;;;;;;2.42;1.20;;;;;;;24.53;45.11;99925.28;5094475;28;20050;-76
2023/08/05 04:15:18;;;;;;;3.30;1.27;;;;;;;24.55;45.12;99926.03;5093453;28;20077;-76
2023/08/05 04:17:44;;;;;;;3.50;1.50;;;;;;;24.54;44.98;99922.53;5094848;28;20024;-76
2023/08/05 04:20:12;;;;;;;2.75;1.30;;;;;;;24.51;44.99;99916.56;5094446;28;20120;-76
2023/08/05 04:22:38;;;;;;;2.35;1.40;;;;;;;24.50;45.09;99910.34;5094678;28;20094;-76
2023/08/05 04:25:05;;;;;;;3.38;1.10;;;;;;;24.49;45.09;99913.13;5093968;28;20150;-75
2023/08/05 04:27:30;;;;;;;2.22;1.08;;;;;;;24.50;45.22;99917.53;5093493;28;20028;-75
2023/08/05 04:29:57;;;;;;;3.08;1.20;;;;;;;24.50;45.04;99925.53;5094719;28;20365;-75
2023/08/05 04:32:22;;;;;;;2.08;1.08;;;;;;;24.49;44.89;99922.00;5094475;28;20106;-76
2023/08/05 04:34:48;;;;;;;1.83;1.20;;;;;;;24.48;45.08;99922.09;5109856;28;20448;-76
2023/08/05 04:37:21;;;;;;;3.00;1.50;;;;;;;24.50;45.26;99920.19;5094159;28;20507;-76
2023/08/05 04:39:46;;;;;;;3.10;1.20;;;;;;;24.48;45.03;99919.41;5093985;28;20537;-76
2023/08/05 04:42:13;;;;;;;2.20;1.20;;;;;;;24.47;45.05;99912.38;5094170;28;20032;-77
2023/08/05 04:44:42;;;;;;;2.28;1.10;;;;;;;24.46;45.27;99916.00;5093911;28;20039;-76
2023/08/05 04:47:08;;;;;;;3.65;1.30;;;;;;;24.46;45.12;99918.69;5093753;28;20024;-76
2023/08/05 04:49:34;;;;;;;2.58;1.33;;;;;;;24.45;44.94;99917.81;5093561;28;20464;-77
2023/08/05 04:51:59;;;;;;;2.45;1.25;;;;;;;24.45;45.08;99916.97;5094035;28;20031;-76
2023/08/05 04:54:25;;;;;;;2.75;1.25;;;;;;;24.43;45.12;99916.22;5093508;28;20023;-76
2023/08/05 04:56:50;;;;;;;3.47;1.50;;;;;;;24.42;45.21;99912.72;5094001;28;20026;-76
2023/08/05 04:59:16;;;;;;;4.10;1.10;;;;;;;24.41;45.21;99908.34;5093729;28;20054;-77
2023/08/05 05:01:41;;;;;;;3.05;1.13;;;;;;;24.43;45.01;99913.53;5093674;28;20613;-76
2023/08/05 05:04:06;;;;;;;2.83;1.13;;;;;;;24.43;45.23;99908.22;5092344;28;20043;-76
2023/08/05 05:06:32;;;;;;;2.42;1.10;;;;;;;24.40;45.03;99898.59;5093487;28;20039;-76
2023/08/05 05:08:57;;;;;;;3.60;1.35;;;;;;;24.42;45.19;99902.03;5093276;28;20023;-76
2023/08/05 05:11:23;;;;;;;2.08;0.90;;;;;;;24.40;45.24;99904.81;5093452;28;20032;-76
2023/08/05 05:13:50;;;;;;;3.25;1.17;;;;;;;24.36;45.43;99897.97;5093501;28;20480;-76
2023/08/05 05:16:17;;;;;;;2.30;1.20;;;;;;;24.37;45.12;99897.00;5094588;28;20069;-76
2023/08/05 05:18:43;;;;;;;2.30;1.10;;;;;;;24.37;45.16;99894.34;5093621;28;20032;-76
2023/08/05 05:21:08;;;;;;;2.47;1.10;;;;;;;24.36;45.34;99891.78;5093470;28;20035;-76
2023/08/05 05:23:33;;;;;;;3.53;1.27;;;;;;;24.35;45.29;99882.94;5093003;28;20107;-76
2023/08/05 05:25:59;;;;;;;2.63;1.05;;;;;;;24.38;45.28;99890.72;5093317;28;20487;-76
2023/08/05 05:28:24;;;;;;;4.10;1.45;;;;;;;24.38;45.27;99896.06;5088687;28;20091;-76
2023/08/05 05:30:49;;;;;;;2.83;1.50;;;;;;;24.37;45.28;99897.00;5093134;28;20396;-76
2023/08/05 05:33:15;;;;;;;3.35;1.35;;;;;;;24.36;45.53;99902.47;5093262;28;20024;-76
2023/08/05 05:35:40;;;;;;;2.83;1.30;;;;;;;24.33;45.73;99892.84;5092862;28;20463;-76
2023/08/05 05:38:06;;;;;;;2.50;1.25;;;;;;;24.35;45.63;99890.09;5092917;28;20028;-76
2023/08/05 05:40:31;;;;;;;2.38;1.33;;;;;;;24.35;45.35;99890.94;5093157;28;20016;-76
2023/08/05 05:42:56;;;;;;;2.90;1.30;;;;;;;24.34;45.70;99893.69;5093024;28;20016;-76
2023/08/05 05:45:22;;;;;;;3.00;1.40;;;;;;;24.32;45.67;99888.50;5092790;28;20066;-76
2023/08/05 05:47:48;;;;;;;3.03;1.30;;;;;;;24.35;45.50;99879.41;5092719;28;20016;-76
2023/08/05 05:50:13;;;;;;;4.20;1.50;;;;;;;24.34;45.65;99878.56;5092854;28;20484;-77
2023/08/05 05:52:39;;;;;;;3.25;1.45;;;;;;;24.35;45.52;99884.75;5092508;28;20046;-76
2023/08/05 05:55:05;;;;;;;3.00;1.58;;;;;;;24.34;45.78;99878.56;5092445;28;20024;-76
2023/08/05 05:57:30;;;;;;;2.95;1.45;;;;;;;24.33;45.83;99874.19;5092579;28;20393;-76
2023/08/05 05:59:58;;;;;;;3.22;1.40;;;;;;;24.35;45.91;99880.25;5091816;28;20056;-77
2023/08/05 06:02:24;;;;;;;4.32;1.58;;;;;;;24.33;45.78;99876.84;5091989;28;20020;-76
2023/08/05 06:04:50;;;;;;;2.88;1.27;;;;;;;24.33;45.92;99884.84;5092323;28;20027;-76
2023/08/05 06:07:15;;;;;;;2.97;1.40;;;;;;;24.36;45.70;99897.97;5092456;28;20027;-76
2023/08/05 06:09:40;;;;;;;4.75;1.45;;;;;;;24.35;45.75;99904.25;5092268;28;20391;-76
2023/08/05 06:12:09;;;;;;;4.70;1.42;;;;;;;24.39;45.81;99913.78;5092252;28;20031;-77
2023/08/05 06:14:36;;;;;;;3.55;1.10;;;;;;;24.36;45.87;99908.63;5093244;28;20028;-76
2023/08/05 06:17:02;;;;;;;2.50;1.25;;;;;;;24.37;45.92;99910.34;5091624;28;20028;-76
2023/08/05 06:19:27;;;;;;;3.72;1.48;;;;;;;24.38;45.94;99917.41;5090445;28;20499;-76
2023/08/05 06:21:53;;;;;;;2.45;1.20;;;;;;;24.40;45.93;99915.47;5092324;28;20020;-77
2023/08/05 06:24:18;;;;;;;3.00;1.48;;;;;;;24.40;46.03;99915.47;5092183;28;20058;-76
2023/08/05 06:26:43;;;;;;;2.58;1.33;;;;;;;24.41;46.15;99905.66;5092057;28;20024;-76
2023/08/05 06:29:09;;;;;;;2.15;1.17;;;;;;;24.42;45.82;99914.50;5092026;28;20602;-77
2023/08/05 06:31:34;;;;;;;2.97;1.40;;;;;;;24.45;45.74;99916.97;5092434;28;20038;-76
2023/08/05 06:34:00;;;;;;;2.85;1.20;;;;;;;24.44;46.02;99904.59;5090169;28;20036;-76
2023/08/05 06:36:25;;;;;;;3.83;1.48;;;;;;;24.46;45.84;99902.69;5089320;28;20020;-75
2023/08/05 06:38:50;;;;;;;2.88;1.48;;;;;;;24.47;45.93;99909.72;5090489;28;20476;-75
2023/08/05 06:41:16;;;;;;;2.72;1.35;;;;;;;24.48;45.80;99908.75;5090914;28;20032;-77
2023/08/05 06:43:41;;;;;;;3.53;1.33;;;;;;;24.48;45.66;99896.28;5091533;28;20339;-76
2023/08/05 06:46:06;;;;;;;3.05;1.33;;;;;;;24.50;45.71;99893.50;5089437;28;20031;-77
2023/08/05 06:48:32;;;;;;;3.67;1.10;;;;;;;24.48;45.99;99884.75;5091094;28;20049;-76
2023/08/05 06:50:58;;;;;;;3.92;1.30;;;;;;;24.49;45.99;99878.44;5091263;28;20016;-76
2023/08/05 06:53:24;;;;;;;4.05;1.48;;;;;;;24.53;46.08;99871.94;5091868;28;20476;-76
2023/08/05 06:56:00;;;;;;;2.65;1.30;;;;;;;24.54;45.71;99862.97;5091816;28;20146;-76
2023/08/05 06:58:25;;;;;;;3.13;1.20;;;;;;;24.55;45.87;99859.34;5090392;28;20431;-76
2023/08/05 07:00:52;;;;;;;2.85;1.45;;;;;;;24.55;45.69;99859.34;5091542;28;20078;-76
2023/08/05 07:03:17;;;;;;;2.63;1.33;;;;;;;24.58;45.85;99864.47;5091468;28;20564;-77
2023/08/05 07:05:43;;;;;;;3.63;1.30;;;;;;;24.58;46.06;99864.47;5090957;28;20499;-76
2023/08/05 07:08:08;;;;;;;2.58;1.40;;;;;;;24.58;46.10;99868.94;5094357;28;20025;-76
2023/08/05 07:10:34;;;;;;;3.22;1.25;;;;;;;24.60;45.90;99875.03;5090924;28;20454;-76
2023/08/05 07:13:02;;;;;;;4.75;1.83;;;;;;;24.62;45.88;99870.44;5092838;28;20755;-76
2023/08/05 07:15:27;;;;;;;3.40;1.50;;;;;;;24.66;46.15;99877.28;5095431;28;20506;-76
2023/08/05 07:17:53;;;;;;;4.05;1.80;;;;;;;24.65;45.76;99876.41;5095132;28;20025;-76
2023/08/05 07:20:18;;;;;;;5.13;1.60;;;;;;;24.69;45.86;99881.56;5091245;28;20023;-75
2023/08/05 07:22:43;;;;;;;3.85;1.75;;;;;;;24.66;45.95;99877.28;5094996;28;20043;-78
2023/08/05 07:25:09;;;;;;;5.22;1.38;;;;;;;24.68;45.93;99880.69;5095126;28;20034;-80
2023/08/05 07:27:34;;;;;;;5.05;1.63;;;;;;;24.72;46.09;99881.31;5095820;28;20055;-79
2023/08/05 07:30:00;;;;;;;6.35;1.83;;;;;;;24.71;45.73;99874.28;5095148;28;20036;-79
2023/08/05 07:32:25;;;;;;;7.22;1.92;;;;;;;24.71;45.84;99879.63;5095509;28;20024;-87
2023/08/05 07:34:54;;;;;;;6.85;1.70;;;;;;;24.71;45.65;99874.28;5097822;28;20059;-73
2023/08/05 07:37:19;;;;;;;6.70;1.52;;;;;;;24.73;45.61;99861.66;5109706;28;20048;-73
2023/08/05 07:39:48;;;;;;;8.10;1.45;;;;;;;24.75;45.60;99865.09;5105481;28;20092;-73
2023/08/05 07:42:18;;;;;;;11.15;2.13;;;;;;;24.75;45.66;99865.09;5107174;28;20039;-73
2023/08/05 07:44:46;;;;;;;6.82;2.25;;;;;;;24.73;45.48;99859.88;5113528;28;20387;-74
2023/08/05 07:47:12;;;;;;;12.57;2.38;;;;;;;24.74;45.39;99847.41;5115298;28;20032;-74
2023/08/05 07:49:38;;;;;;;6.30;1.83;;;;;;;24.76;45.76;99851.66;5115493;28;20388;-72
2023/08/05 07:52:06;;;;;;;8.73;1.92;;;;;;;24.76;45.40;99845.47;5115702;28;20024;-74
2023/08/05 07:54:32;;;;;;;8.18;2.30;;;;;;;24.78;45.41;99854.19;5115665;28;20055;-71
2023/08/05 07:56:58;;;;;;;7.00;1.90;;;;;;;24.82;45.18;99844.19;5115811;28;20537;-73
2023/08/05 07:59:25;;;;;;;5.03;1.92;;;;;;;24.82;45.33;99845.06;5096949;28;20036;-73
2023/08/05 08:01:52;;;;;;;7.47;2.00;;;;;;;24.83;45.78;99841.41;5094511;28;20035;-73
2023/08/05 08:04:18;;;;;;;7.05;1.73;;;;;;;24.86;45.43;99843.88;5095251;28;20032;-73
2023/08/05 08:06:45;;;;;;;9.18;1.80;;;;;;;24.88;45.47;99833.94;5091965;28;20583;-73
2023/08/05 08:09:13;;;;;;;10.70;1.95;;;;;;;24.88;45.38;99839.28;5081537;28;20114;-72
2023/08/05 08:11:39;;;;;;;6.32;1.85;;;;;;;24.87;45.64;99832.22;5086869;28;20443;-73
2023/08/05 08:14:04;;;;;;;6.68;1.70;;;;;;;24.89;45.50;99832.13;5085702;28;20036;-75
2023/08/05 08:16:31;;;;;;;7.95;2.72;;;;;;;24.96;45.76;99830.72;5087144;28;20032;-74
2023/08/05 08:18:56;;;;;;;29.80;5.75;;;;;;;24.99;45.81;99829.66;5087271;28;20080;-75
2023/08/05 08:21:22;;;;;;;22.02;4.45;;;;;;;25.01;45.88;99817.03;5093121;28;20119;-75
2023/08/05 08:23:47;;;;;;;20.98;4.90;;;;;;;25.02;45.89;99816.94;5085483;28;20024;-74
2023/08/05 08:26:13;;;;;;;17.88;4.13;;;;;;;25.05;45.91;99813.19;5078029;28;20028;-76
2023/08/05 08:28:38;;;;;;;15.30;4.40;;;;;;;25.06;46.05;99815.75;5074947;28;20024;-74
2023/08/05 08:31:03;;;;;;;13.57;4.47;;;;;;;25.07;45.82;99822.78;5083109;28;20021;-73
2023/08/05 08:33:29;;;;;;;15.63;3.80;;;;;;;25.10;46.07;99821.72;5095133;28;20415;-74
2023/08/05 08:35:54;;;;;;;10.43;2.90;;;;;;;25.10;46.15;99832.38;5096982;28;20107;-75
2023/08/05 08:38:22;;;;;;;12.25;3.25;;;;;;;25.12;46.18;99819.78;5114490;28;20061;-74
2023/08/05 08:40:49;;;;;;;11.68;3.33;;;;;;;25.12;45.84;99817.09;5114676;28;20023;-73
2023/08/05 08:43:22;;;;;;;13.57;3.00;;;;;;;25.15;46.01;99813.34;5114857;28;20620;-74
2023/08/05 08:45:51;;;;;;;13.80;3.47;;;;;;;25.16;45.75;99820.41;5114092;28;20020;-74
2023/08/05 08:48:17;;;;;;;12.88;2.80;;;;;;;25.15;45.97;99826.72;5114510;28;20020;-74
2023/08/05 08:50:44;;;;;;;10.75;3.42;;;;;;;25.15;45.82;99835.59;5114451;28;20107;-75
2023/08/05 08:53:12;;;;;;;11.23;2.88;;;;;;;25.15;46.06;99840.91;5114786;28;20072;-75
2023/08/05 08:55:37;;;;;;;9.77;2.72;;;;;;;25.15;45.95;99835.59;5114432;28;20035;-75
2023/08/05 08:58:03;;;;;;;8.98;2.78;;;;;;;25.14;45.86;99831.19;5114515;28;20019;-74
2023/08/05 09:00:30;;;;;;;7.18;2.42;;;;;;;25.15;46.17;99834.72;5113910;28;20043;-74
2023/08/05 09:02:59;;;;;;;18.77;2.50;;;;;;;25.13;46.33;99842.81;5114385;28;20032;-74
2023/08/05 09:05:26;;;;;;;10.32;2.35;;;;;;;25.13;46.11;99824.13;5114305;28;20032;-75
2023/08/05 09:07:52;;;;;;;6.63;2.33;;;;;;;25.14;45.91;99833.84;5114565;28;20462;-74
2023/08/05 09:10:17;;;;;;;10.38;2.75;;;;;;;25.14;45.93;99841.88;5114160;28;20091;-75
2023/08/05 09:12:44;;;;;;;6.40;2.08;;;;;;;25.14;45.89;99833.84;5110716;28;20024;-75
2023/08/05 09:15:14;;;;;;;7.20;2.33;;;;;;;25.16;45.97;99844.44;5099130;28;20034;-74
2023/08/05 09:17:39;;;;;;;7.43;2.20;;;;;;;25.16;45.81;99841.75;5114158;28;20016;-74
2023/08/05 09:20:16;;;;;;;6.80;1.98;;;;;;;25.16;46.01;99842.63;5114188;28;20547;-75
2023/08/05 09:22:53;;;;;;;7.38;2.13;;;;;;;25.18;45.73;99832.66;5129868;27;20544;-75
2023/08/05 09:25:18;;;;;;;8.80;2.22;;;;;;;25.22;45.53;99824.44;5113909;28;20027;-75
2023/08/05 09:27:47;;;;;;;6.15;1.80;;;;;;;25.23;45.71;99815.47;5114083;28;20026;-75
2023/08/05 09:30:20;;;;;;;3.75;1.50;;;;;;;25.23;45.17;99815.47;5113351;28;20019;-74
2023/08/05 09:32:46;;;;;;;5.57;1.67;;;;;;;25.22;45.28;99809.25;5113624;28;20024;-75
2023/08/05 09:35:15;;;;;;;6.43;2.38;;;;;;;25.23;45.56;99807.47;5113001;28;20030;-75
2023/08/05 09:37:48;;;;;;;6.80;1.83;;;;;;;25.22;45.12;99808.44;5113366;28;20441;-73
2023/08/05 09:40:18;;;;;;;6.80;2.10;;;;;;;25.24;45.38;99811.81;5113230;28;20030;-75
2023/08/05 09:42:50;;;;;;;5.72;1.80;;;;;;;25.20;45.26;99806.72;5113197;28;20026;-72
2023/08/05 09:45:17;;;;;;;7.45;2.40;;;;;;;25.23;44.87;99794.09;5113564;28;20016;-72
2023/08/05 09:47:47;;;;;;;4.55;1.85;;;;;;;25.23;45.05;99794.94;5113440;28;20031;-71
2023/08/05 09:50:13;;;;;;;6.47;2.20;;;;;;;25.24;45.05;99798.47;5113360;27;20020;-72
2023/08/05 09:52:43;;;;;;;5.03;2.00;;;;;;;25.27;44.91;99800.94;5113440;28;20023;-72
2023/08/05 09:55:18;;;;;;;5.07;1.50;;;;;;;25.26;44.81;99809.88;5113494;28;20101;-72
2023/08/05 09:57:45;;;;;;;4.97;1.58;;;;;;;25.25;44.98;99808.19;5112886;28;20036;-73
2023/08/05 10:00:12;;;;;;;8.80;2.08;;;;;;;25.26;44.91;99816.09;5112885;27;20439;-72
2023/08/05 10:02:43;;;;;;;7.70;1.90;;;;;;;25.25;44.57;99809.06;5111959;28;20024;-71
2023/08/05 10:05:10;;;;;;;5.75;1.80;;;;;;;25.28;44.84;99798.13;5111805;28;20027;-71
2023/08/05 10:07:40;;;;;;;6.25;1.88;;;;;;;25.29;44.61;99793.66;5113136;27;20031;-72
2023/08/05 10:10:08;;;;;;;6.95;1.83;;;;;;;25.29;44.42;99799.00;5112959;28;20125;-71
2023/08/05 10:12:41;;;;;;;6.15;1.98;;;;;;;25.27;44.72;99790.25;5110321;28;20027;-72
2023/08/05 10:15:11;;;;;;;7.13;1.95;;;;;;;25.29;44.53;99790.97;5097399;28;20475;-72
2023/08/05 10:17:40;;;;;;;7.20;1.50;;;;;;;25.28;44.81;99778.59;5112795;28;20038;-72
2023/08/05 10:20:07;;;;;;;4.97;1.95;;;;;;;25.30;44.68;99784.66;5112537;28;20111;-72
2023/08/05 10:22:32;;;;;;;6.10;1.90;;;;;;;25.29;44.46;99777.63;5112851;28;20081;-72
2023/08/05 10:25:00;;;;;;;6.00;2.15;;;;;;;25.30;44.47;99768.63;5112446;28;20474;-72
2023/08/05 10:27:43;;;;;;;5.75;1.75;;;;;;;25.30;44.01;99771.31;5112411;28;20028;-72
2023/08/05 10:30:16;;;;;;;7.35;2.08;;;;;;;25.30;44.04;99744.59;5112692;28;20031;-71
2023/08/05 10:32:57;;;;;;;6.70;1.77;;;;;;;25.30;44.12;99741.94;5112769;28;20100;-72
2023/08/05 10:35:39;;;;;;;4.57;1.58;;;;;;;25.31;44.01;99732.94;5112637;28;20024;-72
2023/08/05 10:38:20;;;;;;;4.53;1.42;;;;;;;25.32;44.01;99734.63;5112567;28;20111;-71
2023/08/05 10:40:51;;;;;;;6.72;1.70;;;;;;;25.33;43.83;99726.53;5112235;28;20019;-71
2023/08/05 10:43:36;;;;;;;5.40;1.70;;;;;;;25.34;44.08;99722.88;5112468;28;20067;-71
2023/08/05 10:46:14;;;;;;;6.10;1.70;;;;;;;25.37;44.14;99708.44;5112285;28;20031;-75
2023/08/05 10:48:44;;;;;;;5.18;1.58;;;;;;;25.39;43.69;99711.88;5112566;28;20030;-75
2023/08/05 10:51:20;;;;;;;4.97;1.55;;;;;;;25.37;44.11;99721.78;5112767;28;20016;-74
2023/08/05 10:53:51;;;;;;;5.35;1.40;;;;;;;25.40;44.18;99710.91;5112208;28;20016;-74
2023/08/05 10:56:17;;;;;;;4.88;1.67;;;;;;;25.41;44.09;99723.28;5112110;28;20032;-74
2023/08/05 10:58:47;;;;;;;4.55;1.45;;;;;;;25.41;43.87;99704.56;5112403;28;20395;-74
2023/08/05 11:01:13;;;;;;;3.47;1.23;;;;;;;25.41;43.84;99698.38;5111748;28;20046;-74
2023/08/05 11:03:50;;;;;;;5.70;1.95;;;;;;;25.41;44.00;99701.03;5112438;28;20027;-73
2023/08/05 11:06:22;;;;;;;8.40;2.10;;;;;;;25.42;43.99;99698.25;5112071;28;20035;-74
2023/08/05 11:08:48;;;;;;;27.40;12.07;;;;;;;25.42;44.33;99690.25;5112277;28;20027;-72
2023/08/05 11:11:14;;;;;;;22.70;5.78;;;;;;;25.41;44.37;99683.22;5111956;28;20030;-73
2023/08/05 11:13:41;;;;;;;13.10;3.45;;;;;;;25.40;44.58;99684.19;5100486;28;20028;-73
2023/08/05 11:16:13;;;;;;;9.02;2.17;;;;;;;25.41;44.61;99677.00;5105577;28;20070;-73
2023/08/05 11:18:44;;;;;;;8.15;2.58;;;;;;;25.38;44.79;99659.41;5112267;28;20020;-73
2023/08/05 11:21:13;;;;;;;11.43;2.78;;;;;;;25.37;44.38;99668.38;5112019;28;20492;-72
2023/08/05 11:23:40;;;;;;;12.38;2.25;;;;;;;25.37;44.55;99662.19;5111964;28;20019;-71
2023/08/05 11:26:07;;;;;;;11.13;2.28;;;;;;;25.39;44.72;99655.78;5111639;28;20453;-71
2023/08/05 11:28:33;;;;;;;9.73;2.72;;;;;;;25.40;44.52;99654.81;5110743;28;20066;-73
2023/08/05 11:31:00;;;;;;;12.55;2.58;;;;;;;25.42;44.80;99660.03;5112025;28;20085;-73